Time,TemperatureF,DewpointF,PressureIn,WindDirection,WindDirectionDegrees,WindSpeedMPH,WindSpeedGustMPH,Humidity,HourlyPrecipIn,Conditions,Clouds,dailyrainin,SoftwareType,DateUTC
2013-11-02 14:37:00,71.0,38.1,30.19,North,0,0.0,0.0,30,0.00,,,0.00,WUHU216HW,2013-11-02 19:37:00,
2013-11-02 14:41:00,70.8,36.9,30.19,North,0,0.0,0.0,29,0.00,,,0.00,WUHU216HW,2013-11-02 19:41:00,
2013-11-02 14:46:00,70.8,36.9,30.19,North,0,0.0,0.0,29,0.00,,,0.00,WUHU216HW,2013-11-02 19:46:00,
2013-11-02 21:32:00,52.5,37.6,30.18,North,0,0.0,0.0,57,0.00,,,0.00,WUHU216HW,2013-11-03 02:32:00,
2013-11-02 21:37:00,52.5,37.6,30.18,North,0,0.0,0.0,57,0.00,,,0.00,WUHU216HW,2013-11-03 02:37:00,
2013-11-02 21:42:00,52.5,37.6,30.18,North,0,0.0,0.0,57,0.00,,,0.00,WUHU216HW,2013-11-03 02:42:00,
2013-11-02 21:47:00,52.5,37.6,30.19,North,0,0.0,0.0,56,0.00,,,0.00,WUHU216HW,2013-11-03 02:47:00,
2013-11-02 21:52:00,52.7,37.3,30.18,North,0,0.0,0.0,57,0.00,,,0.00,WUHU216HW,2013-11-03 02:52:00,
2013-11-02 21:57:00,52.7,37.3,30.18,North,0,0.0,0.0,57,0.00,,,0.00,WUHU216HW,2013-11-03 02:57:00,
2013-11-02 22:08:00,53.0,38.1,30.19,North,0,0.0,0.0,57,0.00,,,0.00,WUHU216HW,2013-11-03 03:08:00,
2013-11-02 22:13:00,53.0,38.1,30.19,North,0,0.0,0.0,57,0.00,,,0.00,WUHU216HW,2013-11-03 03:13:00,
2013-11-02 22:22:00,53.4,38.0,30.19,North,0,0.0,0.0,56,0.00,,,0.00,WUHU216HW,2013-11-03 03:22:00,
2013-11-02 22:39:00,54.6,38.2,30.20,North,0,0.0,0.0,54,0.00,,,0.00,WUHU216HW,2013-11-03 03:39:00,
2013-11-02 22:53:00,53.7,39.3,30.20,North,0,0.0,0.0,58,0.00,,,0.00,WUHU216HW,2013-11-03 03:53:00,
2013-11-02 22:58:00,53.0,39.0,30.20,North,0,0.0,0.0,59,0.00,,,0.00,WUHU216HW,2013-11-03 03:58:00,
2013-11-02 23:03:00,52.5,39.0,30.20,North,0,0.0,0.0,60,0.00,,,0.00,WUHU216HW,2013-11-03 04:03:00,
2013-11-02 23:08:00,51.6,38.5,30.20,North,0,0.0,0.0,61,0.00,,,0.00,WUHU216HW,2013-11-03 04:08:00,
2013-11-02 23:13:00,51.0,38.4,30.20,North,0,0.0,0.0,62,0.00,,,0.00,WUHU216HW,2013-11-03 04:13:00,
2013-11-02 23:19:00,50.1,38.4,30.20,North,0,0.0,0.0,64,0.00,,,0.00,WUHU216HW,2013-11-03 04:19:00,
2013-11-02 23:24:00,49.6,38.3,30.20,North,0,0.0,0.0,65,0.00,,,0.00,WUHU216HW,2013-11-03 04:24:00,
2013-11-02 23:29:00,48.9,37.6,30.20,North,0,0.0,0.0,65,0.00,,,0.00,WUHU216HW,2013-11-03 04:29:00,
2013-11-02 23:34:00,48.9,37.6,30.20,North,0,0.0,0.0,65,0.00,,,0.00,WUHU216HW,2013-11-03 04:34:00,
2013-11-02 23:45:00,47.8,37.3,30.19,North,0,0.0,0.0,67,0.00,,,0.00,WUHU216HW,2013-11-03 04:45:00,
2013-11-02 23:50:00,47.3,37.2,30.19,North,0,0.0,0.0,68,0.00,,,0.00,WUHU216HW,2013-11-03 04:50:00,
2013-11-02 23:55:00,47.3,37.2,30.19,North,0,0.0,0.0,68,0.00,,,0.00,WUHU216HW,2013-11-03 04:55:00,